WetterOnline ( https://www.wetteronline.de )

Wetter aktuell Obergünzburg

Aktuelles Wetter: Kempten (705m)

6-stündlich | Neueste Meldungen
Ortszeit Temperatur Wetter
So, 05.07. 8:00 17.6° C wolkenlos
So, 05.07. 2:00 13.2° C wolkenlos
Sa, 04.07. 20:00 21.1° C wolkenlos
Sa, 04.07. 14:00 20.7° C wolkig
Sa, 04.07. 8:00 13.6° C wolkig
Sa, 04.07. 2:00 11.0° C wolkenlos
Fr, 03.07. 20:00 16.9° C bedeckt
Fr, 03.07. 14:00 16.8° C bedeckt
Ortszeit Temperatur Wetter
So, 05.07. 12:30 23.1° C bedeckt
So, 05.07. 12:20 23.1° C bedeckt
So, 05.07. 12:10 22.5° C bedeckt
So, 05.07. 12:00 21.7° C bedeckt
So, 05.07. 11:50 21.7° C bedeckt
So, 05.07. 11:40 21.3° C bedeckt
So, 05.07. 11:30 21.4° C bedeckt
So, 05.07. 11:00 20.9° C wolkig
Ortszeit Relative Feuchte Sichtweite
So, 05.07. 8:00 67% 45 km
So, 05.07. 2:00 88% 20 km
Sa, 04.07. 20:00 52% 40 km
Sa, 04.07. 14:00 53% 35 km
Sa, 04.07. 8:00 81% 30 km
Sa, 04.07. 2:00 95% 12 km
Fr, 03.07. 20:00 69% 40 km
Fr, 03.07. 14:00 70% 45 km
Ortszeit Relative Feuchte Sichtweite
So, 05.07. 12:30 47% 24 km
So, 05.07. 12:20 47% -
So, 05.07. 12:10 50% -
So, 05.07. 12:00 54% 45 km
So, 05.07. 11:50 54% -
So, 05.07. 11:40 54% -
So, 05.07. 11:30 54% 35 km
So, 05.07. 11:00 55% 35 km
Ortszeit Niederschlagsmenge Niederschlagsart
So, 05.07. 8:00 0.0 l/m2 in 12 Std. -
So, 05.07. 2:00 0.0 l/m2 in 6 Std. -
Sa, 04.07. 20:00 0.0 l/m2 in 12 Std. -
Sa, 04.07. 14:00 0.0 l/m2 in 6 Std. -
Sa, 04.07. 8:00 0.0 l/m2 in 12 Std. -
Sa, 04.07. 2:00 0.0 l/m2 in 6 Std. -
Fr, 03.07. 20:00 0.3 l/m2 in 12 Std. Sprühregen
Fr, 03.07. 14:00 0.3 l/m2 in 6 Std. Regen
Ortszeit Niederschlagsmenge Niederschlagsart
So, 05.07. 12:30 0.0 l/m2 in 1 Std. -
So, 05.07. 12:20 keine Meldung -
So, 05.07. 12:10 keine Meldung -
So, 05.07. 12:00 0.0 l/m2 in 1 Std. -
So, 05.07. 11:50 keine Meldung -
So, 05.07. 11:40 keine Meldung -
So, 05.07. 11:30 0.0 l/m2 in 1 Std. -
So, 05.07. 11:00 0.0 l/m2 in 1 Std. -
Ortszeit Stärke Spitze Richtung
km/h Bft. km/h Grad Sektor
So, 05.07. 8:00 7 2 15 200° S
So, 05.07. 2:00 6 1 19 140° SO
Sa, 04.07. 20:00 9 2 28 260° W
Sa, 04.07. 14:00 6 1 17 320° NW
Sa, 04.07. 8:00 7 2 17 180° S
Sa, 04.07. 2:00 7 2 18 100° O
Fr, 03.07. 20:00 7 2 14 200° S
Fr, 03.07. 14:00 4 1 14 340° N
Ortszeit Stärke Spitze Richtung
km/h Bft. km/h Grad Sektor
So, 05.07. 12:30 13 3 30 230° SW
So, 05.07. 12:20 13 3 - 230° SW
So, 05.07. 12:10 15 3 - 230° SW
So, 05.07. 12:00 13 3 28 230° SW
So, 05.07. 11:50 13 3 - 230° SW
So, 05.07. 11:40 13 3 - 260° W
So, 05.07. 11:30 11 2 25 270° W
So, 05.07. 11:00 14 3 32 260° W
Ortszeit Untergrenze Bedeckung Gattung
total tief tief mittel hoch
So, 05.07. 8:00 - 0/8 0/8 - - -
So, 05.07. 2:00 - 0/8 0/8 - - -
Sa, 04.07. 20:00 - 0/8 0/8 - - -
Sa, 04.07. 14:00 1230 m 6/8 6/8 - - -
Sa, 04.07. 8:00 1800 m 5/8 5/8 - - -
Sa, 04.07. 2:00 - 0/8 0/8 - - -
Fr, 03.07. 20:00 1800 m 8/8 8/8 - - -
Fr, 03.07. 14:00 690 m 8/8 8/8 - - -
Ortszeit Bedeckungsgrad in Achtel und Wolkenuntergrenze
So, 05.07. 12:30 3(1800m) 8(2100m)
So, 05.07. 12:20 3(1800m) 8(2100m)
So, 05.07. 12:10 5(1800m) 8(2100m)
So, 05.07. 12:00 7(1800m) 8(2100m)
So, 05.07. 11:50 7(1800m) 8(2100m)
So, 05.07. 11:40 8(2100m)
So, 05.07. 11:30 8(2100m)
So, 05.07. 11:00 7(2400m)
Ortszeit Luftdruck NN (hPa) Tendenz (hPa in 3 Std.)
So, 05.07. 8:00 1019 - 0,3
So, 05.07. 2:00 1021 + 0,6
Sa, 04.07. 20:00 1018 - 0,1
Sa, 04.07. 14:00 1018 - 0,7
Sa, 04.07. 8:00 1021 + 0,4
Sa, 04.07. 2:00 1021 - 0,1
Fr, 03.07. 20:00 1019 + 0,3
Fr, 03.07. 14:00 1019 + 0,5
Ortszeit Luftdruck NN (hPa) Tendenz (hPa in 3 Std.)
So, 05.07. 12:30 1017 - 0,5
So, 05.07. 12:20 1017 keine Meldung
So, 05.07. 12:10 1017 keine Meldung
So, 05.07. 12:00 1018 - 0,1
So, 05.07. 11:50 1018 keine Meldung
So, 05.07. 11:40 1018 keine Meldung
So, 05.07. 11:30 1018 0,0
So, 05.07. 11:00 1018 0,0
Ortszeit Schneehöhe (cm)
So, 05.07. 8:00 -
So, 05.07. 2:00 -
Sa, 04.07. 20:00 -
Sa, 04.07. 14:00 -
Sa, 04.07. 8:00 -
Sa, 04.07. 2:00 -
Fr, 03.07. 20:00 -
Fr, 03.07. 14:00 -
Ortszeit Schneehöhe (cm)
So, 05.07. 12:30 -
So, 05.07. 12:20 -
So, 05.07. 12:10 -
So, 05.07. 12:00 -
So, 05.07. 11:50 -
So, 05.07. 11:40 -
So, 05.07. 11:30 -
So, 05.07. 11:00 -
Link zu dieser Seite / Seite empfehlen

Das Wetter in ...